Logo AVAMET
Benvolgut visitant, si us plau, ingressa Recuperar contrasenya

Castelló de la Plana UJI

Dades diàries. Acumulats / Últims 30 dies disponibles

Data Temperatura (°C) Humitat rel. (%) Pressió rel. (hPa) Vent (km/h) Precipitació
Mínima Mitjana Màxima Amplitud
tèrmica
Mínima Mitjana Màxima Mínima Mitjana Màxima Predom. Mitjana Ràfega
màxima
Total
(mm)
Índex-n
Mínima Mitjana Màxima Mínima Mitjana Màxima n
0 a 1
P0 max
mm 5'
Dades mensuals acumulades fins l'últim dia disponible
12/2019 8,7 10,5 11,8 12,8 13,2 14,8 17,7 9,0   9,4 62,8 96,8
Dades anuals acumulades fins l'últim dia disponible
2019 1,0 12,7 24,8 17,8 12,0 22,5 37,6 36,6   5,8 74,0 251,7
Últims 30 dies disponibles
06-12-2019 8,7     13,1     15,9 7,2 NE 4,3 27,4 9,4
05-12-2019 11,1     12,6     13,9 2,8 N 7,7 35,4 22,4
04-12-2019 10,2     11,5     13,8 3,6 N 20,8 62,8 59,4
03-12-2019 10,4     11,8     13,2 2,8 N 9,2 49,9 5,0
02-12-2019 10,9     13,3     14,5 3,6 N 9,0 37,0 0,6
01-12-2019 11,8     14,2     17,7 5,9 NE 5,1 29,0 0,0
29-11-2019 15,1     18,6     22,8 7,7 NNE 4,0 25,7 0,0
28-11-2019 12,9     17,4     21,9 9,0 WSW 10,1 49,9 0,0
27-11-2019 13,4     18,1     22,8 9,4 WSW 9,5 38,6 0,0
26-11-2019 10,2     16,0     20,8 10,6 W 5,0 29,0 0,0
25-11-2019 10,1     16,9     23,1 13,0 WNW 7,9 33,8 0,0
24-11-2019 10,6     14,7     19,2 8,6 NW 9,5 43,5 0,0
23-11-2019 11,2     14,8     17,7 6,5 WNW 16,7 54,7 0,0
22-11-2019 7,8     13,1     16,8 9,0 W 4,7 33,8 0,6
21-11-2019 6,8     13,1     17,7 10,9 SSW 6,6 32,2 0,0
20-11-2019 6,9     11,3     15,7 8,8 W 4,2 20,9 0,0
19-11-2019 6,2     11,1     15,9 9,7 WNW 7,1 27,4 0,0
18-11-2019 7,9     12,4     15,6 7,7 NW 10,0 40,2 0,0
17-11-2019 7,6     12,8     18,6 11,0 WSW 9,5 41,8 0,0
16-11-2019 5,9     11,0     15,6 9,7 WNW 6,9 38,6 0,0
15-11-2019 8,8     11,7     15,6 6,8 WNW 7,2 25,7 0,0
14-11-2019 8,9     12,6     16,6 7,7 WSW 9,7 43,5 0,0
13-11-2019 10,9     14,6     19,5 8,6 WNW 3,2 30,6 2,6
12-11-2019 12,7     15,4     19,8 7,1 NW 13,7 67,6 0,2
11-11-2019 10,2     14,2     18,5 8,3 NW 10,5 59,5 0,0
10-11-2019 11,1     13,8     16,7 5,6 NW 16,6 66,0 0,0
09-11-2019 12,7     15,4     18,5 5,8 WSW 10,9 45,1 0,0
08-11-2019 10,2     14,3     18,2 8,0 WNW 15,9 62,8 0,0
07-11-2019 10,3     15,9     22,6 12,3 W 10,9 45,1 0,0
06-11-2019 11,3     16,3     21,9 10,6 WNW 6,4 32,2 0,0
Últims 13 mesos disponibles
07/2019 18,8 21,1 24,1 26,3 27,8 30,6 34,6 15,8 E 5,2 45,1 11,4
06/2019 10,1 16,7 21,2 22,1 21,3 26,7 37,6 27,5 E 5,8 48,3 0,0
05/2019 7,3 12,5 15,7 17,7 17,8 22,4 28,4 21,1 W 5,6 41,8 12,5
04/2019 5,9 10,0 13,9 14,9 16,0 19,5 27,1 21,2 W 7,6 59,5 51,5
03/2019 4,3 7,5 13,2 13,7 15,8 19,5 25,4 21,1 W 5,5 46,7 1,0
02/2019 1,0 4,9 9,7 10,8 13,3 16,9 23,3 22,3 SW 5,3 74,0 0,0
01/2019 1,8 4,2 7,6 10,0 12,0 15,8 21,8 20,0 WSW 3,5 56,3 0,9
12/2018 3,2 7,3 10,9 12,1 14,1 17,5 23,6 20,4 WSW 1,5 46,7 8,9
11/2018 5,3 9,9 16,2 13,9 14,1 18,3 21,1 15,8 SW 2,2 35,4 80,0
10/2018 5,8 13,5 18,1 18,1 14,2 22,2 27,4 21,6 ENE 2,6 57,9 138,0
09/2018 15,7 19,5 22,1 23,7 24,2 27,3 30,4 14,7 ENE 2,1 46,7 69,1
08/2018 18,2 21,9 26,1 26,4 26,6 30,0 34,4 16,2 2,4 29,0 76,3
07/2018 18,4 21,8 24,0 26,2 26,1 29,8 34,3 15,9 2,6 22,5 2,5
Tots els anys disponibles
2017 2,2 12,9 24,9 17,8 9,0 22,1 35,6 33,4 2,5 75,6 376,8
2016 2,2 15,7 24,1 20,1 12,0 24,0 33,2 31,0 2,5 43,5 361,3
2015 0,8 13,2 20,4 17,8 20,2 22,1 35,9 35,1 4,1 67,6 513,8
Temperatura (°C)
Humitat relativa (%)
Velocitat del vent i ràfega màxima (km/h)
Direcció del vent (°)
Pressió (hPa)
Precipitació (mm)
Nota sobre les dades: s'avisa a l'usuari de la provisionalitat i no oficialitat d'aquestes dades
Logo AVAMET blanc
Web allotjada a Sollutia
Llicència de Creative CommonsLa web d'AVAMET i els seus continguts estan subjectes a una llicència de
Reconeixement - No Comercial - Compartir igual
Últimes estacions: Aielo de Malferit - Centre (Soci), Faura (Inforatge), Benifairó de les Valls (Inforatge), Xàbia - Les Valls (Soci), Xàbia - Alt de la Granadella (Soci), Villena - Sierra de Salinas (Soci), Sueca - Centre (Inforatge) - - -